Time;durP1;ratioP1;P1;durP2;ratioP2;P2;SDS_P1;SDS_P2;PMS_P1;PMS_P2;Temp;Humidity;BMP_temperature;BMP_pressure;BME280_temperature;BME280_humidity;BME280_pressure;Samples;Min_cycle;Max_cycle;Signal;HPM_P1;HPM_P2
2022/02/08 00:03:34;;;;;;;18.00;4.80;;;;;;;2.20;78.06;99863.00;105705;1275;107680;-72
2022/02/08 00:06:20;;;;;;;17.90;5.10;;;;;;;2.19;77.88;99863.70;105659;1275;138331;-72
2022/02/08 00:08:52;;;;;;;17.20;5.30;;;;;;;2.19;78.10;99868.66;105676;1275;97710;-73
2022/02/08 00:11:24;;;;;;;19.40;5.60;;;;;;;2.22;78.08;99870.54;105680;1276;138166;-72
2022/02/08 00:13:56;;;;;;;22.00;5.80;;;;;;;2.24;78.05;99877.73;105700;1278;106866;-72
2022/02/08 00:16:28;;;;;;;17.40;5.70;;;;;;;2.24;78.08;99887.33;105734;1275;109595;-72
2022/02/08 00:19:01;;;;;;;21.70;5.60;;;;;;;2.28;78.32;99888.85;105343;1275;138296;-72
2022/02/08 00:21:33;;;;;;;25.40;6.30;;;;;;;2.30;78.22;99889.52;105797;1276;98375;-72
2022/02/08 00:24:05;;;;;;;18.20;5.90;;;;;;;2.29;78.19;99895.20;105886;1277;141885;-72
2022/02/08 00:26:38;;;;;;;19.50;5.00;;;;;;;2.27;78.33;99897.43;107452;1274;108294;-73
2022/02/08 00:29:10;;;;;;;21.00;5.50;;;;;;;2.25;78.25;99897.27;106569;1275;108962;-72
2022/02/08 00:31:42;;;;;;;16.80;4.90;;;;;;;2.26;78.38;99903.79;105779;1275;138297;-73
2022/02/08 00:34:14;;;;;;;17.30;4.50;;;;;;;2.26;78.34;99903.79;105903;1274;97860;-73
2022/02/08 00:36:47;;;;;;;19.00;5.20;;;;;;;2.29;78.17;99910.63;105548;1274;138282;-73
2022/02/08 00:39:19;;;;;;;16.80;4.90;;;;;;;2.32;78.20;99911.98;105819;1275;108925;-73
2022/02/08 00:41:51;;;;;;;18.80;5.50;;;;;;;2.35;78.37;99917.33;105735;1275;137733;-73
2022/02/08 00:44:32;;;;;;;22.80;5.50;;;;;;;2.35;78.03;99918.86;105839;1275;97841;-72
2022/02/08 00:47:16;;;;;;;24.50;5.80;;;;;;;2.34;78.18;99923.50;105947;1274;97923;-71
2022/02/08 00:49:48;;;;;;;29.90;6.50;;;;;;;2.35;78.39;99920.41;105757;1275;138395;-73
2022/02/08 00:52:20;;;;;;;23.10;6.30;;;;;;;2.30;78.25;99923.31;105823;1275;107143;-72
2022/02/08 00:54:53;;;;;;;25.00;5.90;;;;;;;2.29;78.28;99923.33;105876;1275;139914;-73
2022/02/08 00:57:25;;;;;;;22.50;5.70;;;;;;;2.26;78.24;99922.83;105689;1276;97932;-73
2022/02/08 00:59:57;;;;;;;19.70;5.50;;;;;;;2.24;78.36;99923.35;105833;1275;138401;-72
2022/02/08 01:02:30;;;;;;;18.80;5.30;;;;;;;2.25;78.35;99920.43;105916;1274;112347;-72
2022/02/08 01:05:03;;;;;;;23.30;5.90;;;;;;;2.27;78.49;99922.48;105985;1273;108384;-73
2022/02/08 01:07:35;;;;;;;21.50;5.90;;;;;;;2.27;78.65;99924.88;105817;1274;137570;-72
2022/02/08 01:10:10;;;;;;;20.90;5.80;;;;;;;2.27;78.41;99928.83;105793;1274;97853;-72
2022/02/08 01:12:43;;;;;;;22.40;5.60;;;;;;;2.25;78.41;99927.98;106218;1274;137334;-73
2022/02/08 01:15:16;;;;;;;26.50;5.90;;;;;;;2.24;78.67;99933.13;105705;1273;111383;-73
2022/02/08 01:17:55;;;;;;;18.50;5.70;;;;;;;2.20;78.51;99934.02;105689;1277;137668;-72
2022/02/08 01:20:33;;;;;;;23.30;5.40;;;;;;;2.18;78.43;99937.63;105839;1274;108875;-72
2022/02/08 01:23:07;;;;;;;21.50;5.70;;;;;;;2.17;78.62;99943.80;105854;1274;97940;-73
2022/02/08 01:25:44;;;;;;;23.10;5.70;;;;;;;2.16;78.60;99948.25;105752;1273;138677;-73
2022/02/08 01:28:24;;;;;;;19.60;5.80;;;;;;;2.14;78.79;99954.42;105801;1273;111552;-72
2022/02/08 01:31:03;;;;;;;20.60;5.50;;;;;;;2.13;78.80;99964.89;105749;1274;138369;-72
2022/02/08 01:36:49;;;;;;;31.00;6.30;;;;;;;2.09;78.98;99970.39;105792;1274;138559;-73
2022/02/08 01:39:27;;;;;;;32.40;6.50;;;;;;;2.06;78.88;99974.34;105838;1274;98032;-73
2022/02/08 01:45:01;;;;;;;24.10;7.10;;;;;;;2.04;79.24;99984.46;106700;1274;108759;-73
2022/02/08 01:47:44;;;;;;;23.80;5.90;;;;;;;2.03;79.30;99988.08;106179;1275;109125;-72
2022/02/08 01:50:17;;;;;;;18.80;5.40;;;;;;;2.03;79.42;99992.70;107355;1274;138228;-73
2022/02/08 01:52:50;;;;;;;15.00;5.10;;;;;;;2.05;79.48;99991.15;107301;1274;96068;-73
2022/02/08 01:55:33;;;;;;;21.80;5.90;;;;;;;2.06;79.46;99992.35;106799;1274;138846;-72
2022/02/08 01:58:23;;;;;;;20.90;5.30;;;;;;;2.08;79.33;99991.48;105928;1274;107834;-72
2022/02/08 02:01:00;;;;;;;24.90;6.00;;;;;;;2.12;79.52;99998.66;105694;1274;137528;-72
2022/02/08 02:03:34;;;;;;;29.80;6.20;;;;;;;2.13;79.43;100003.99;105896;1275;97850;-72
2022/02/08 02:06:07;;;;;;;26.50;6.50;;;;;;;2.13;79.38;100007.25;105746;1274;137758;-72
2022/02/08 02:08:39;;;;;;;24.60;6.20;;;;;;;2.13;79.27;100009.99;105907;1273;111923;-74
2022/02/08 02:11:11;;;;;;;27.60;6.10;;;;;;;2.10;79.55;100013.43;105895;1277;109276;-71
2022/02/08 02:13:47;;;;;;;27.90;6.50;;;;;;;2.12;79.57;100012.39;105713;1274;139368;-72
2022/02/08 02:16:27;;;;;;;23.30;6.10;;;;;;;2.14;79.46;100009.81;105683;1274;97846;-75
2022/02/08 02:19:00;;;;;;;17.10;5.20;;;;;;;2.14;79.63;100017.19;105741;1274;139320;-72
2022/02/08 02:21:35;;;;;;;17.60;5.00;;;;;;;2.19;79.68;100024.59;105896;1274;113910;-72
2022/02/08 02:24:08;;;;;;;21.30;5.30;;;;;;;2.23;79.65;100034.52;105754;1274;140864;-72
2022/02/08 02:26:40;;;;;;;20.80;5.60;;;;;;;2.26;79.45;100037.42;107478;1274;110063;-72
2022/02/08 02:29:16;;;;;;;22.20;5.80;;;;;;;2.25;79.37;100038.46;107241;1274;217615;-72
2022/02/08 02:31:49;;;;;;;29.60;6.50;;;;;;;2.25;79.46;100040.52;106713;1274;138139;-72
2022/02/08 02:34:22;;;;;;;24.50;5.80;;;;;;;2.25;79.37;100050.46;106333;1274;112926;-71
2022/02/08 02:36:58;;;;;;;25.20;6.50;;;;;;;2.25;79.38;100050.63;107292;1274;137869;-72
2022/02/08 02:39:30;;;;;;;22.60;5.10;;;;;;;2.22;79.23;100053.04;107352;1274;107852;-73
2022/02/08 02:42:12;;;;;;;19.20;4.70;;;;;;;2.20;79.11;100057.34;106653;1277;138557;-72
2022/02/08 02:44:45;;;;;;;17.30;4.30;;;;;;;2.23;79.36;100061.27;106622;1274;96905;-72
2022/02/08 02:47:19;;;;;;;17.20;4.60;;;;;;;2.26;79.07;100059.55;105913;1275;112081;-71
2022/02/08 02:49:52;;;;;;;20.40;4.90;;;;;;;2.28;79.39;100063.49;107286;1274;136551;-71
2022/02/08 02:52:24;;;;;;;18.50;4.90;;;;;;;2.31;79.32;100064.51;107249;1274;107859;-72
2022/02/08 02:55:00;;;;;;;19.60;4.80;;;;;;;2.34;79.23;100065.38;107263;1277;138354;-72
2022/02/08 02:57:32;;;;;;;22.70;5.20;;;;;;;2.34;78.98;100064.19;107528;1274;95768;-72
2022/02/08 03:00:11;;;;;;;21.30;5.10;;;;;;;2.32;78.98;100071.88;106995;1274;137777;-71
2022/02/08 03:02:48;;;;;;;21.10;5.40;;;;;;;2.31;78.86;100072.91;107333;1266;109745;-72
2022/02/08 03:05:29;;;;;;;19.20;4.10;;;;;;;2.31;78.93;100078.23;107537;1274;109025;-72
2022/02/08 03:19:35;;;;;;;21.90;5.60;;;;;;;2.45;78.57;100110.99;105850;1274;138153;-72
2022/02/08 03:22:09;;;;;;;17.90;5.40;;;;;;;2.43;78.38;100111.52;107574;1274;96218;-74
2022/02/08 03:24:41;;;;;;;17.90;4.50;;;;;;;2.40;78.40;100118.73;107424;1274;138904;-72
2022/02/08 03:27:15;;;;;;;16.20;4.10;;;;;;;2.38;78.33;100125.94;106960;1274;112645;-72
2022/02/08 03:29:48;;;;;;;18.30;4.10;;;;;;;2.38;78.32;100137.78;105864;1274;109546;-72
2022/02/08 03:32:22;;;;;;;14.00;4.30;;;;;;;2.39;78.42;100143.61;105676;1274;138347;-73
2022/02/08 03:34:54;;;;;;;16.20;4.30;;;;;;;2.43;78.41;100147.55;105872;1274;97947;-72
2022/02/08 03:37:30;;;;;;;14.40;4.60;;;;;;;2.47;78.39;100145.66;105828;1274;137737;-73
2022/02/08 03:40:08;;;;;;;13.40;4.80;;;;;;;2.47;78.25;100152.69;105840;1275;113039;-72
2022/02/08 03:42:57;;;;;;;17.20;5.40;;;;;;;2.46;78.17;100158.02;105892;1274;138201;-72
2022/02/08 03:45:31;;;;;;;23.80;5.20;;;;;;;2.47;78.24;100162.81;106495;1274;108800;-72
2022/02/08 03:48:03;;;;;;;12.90;4.60;;;;;;;2.47;78.18;100166.25;105778;1274;139387;-71
2022/02/08 03:50:35;;;;;;;14.70;4.20;;;;;;;2.46;78.16;100172.09;105918;1274;97838;-72
2022/02/08 03:53:08;;;;;;;15.50;4.20;;;;;;;2.46;78.20;100176.03;105976;1274;113017;-73
2022/02/08 03:55:41;;;;;;;12.50;4.20;;;;;;;2.47;78.07;100178.60;105706;1274;141159;-73
2022/02/08 03:58:13;;;;;;;14.90;4.30;;;;;;;2.47;77.99;100179.11;106011;1274;105877;-73
2022/02/08 04:00:59;;;;;;;14.00;4.00;;;;;;;2.48;78.02;100183.41;105660;1274;139544;-73
2022/02/08 04:03:34;;;;;;;18.90;4.50;;;;;;;2.49;77.96;100187.86;105781;1276;97815;-74
2022/02/08 04:06:07;;;;;;;15.10;5.20;;;;;;;2.49;77.72;100186.66;105768;1274;137969;-72
2022/02/08 04:08:39;;;;;;;19.10;5.20;;;;;;;2.47;77.76;100194.91;105926;1277;108359;-72
2022/02/08 04:11:13;;;;;;;25.40;5.60;;;;;;;2.47;77.61;100201.42;105781;1278;108984;-72
2022/02/08 04:13:53;;;;;;;14.70;4.00;;;;;;;2.43;77.31;100207.78;105597;1277;138652;-72
2022/02/08 04:16:29;;;;;;;11.70;3.60;;;;;;;2.40;77.10;100207.62;105763;1278;97951;-71
2022/02/08 04:19:15;;;;;;;16.10;3.80;;;;;;;2.39;77.08;100216.19;105795;1276;138418;-71
2022/02/08 04:33:13;;;;;;;9.80;2.20;;;;;;;2.38;75.45;100240.39;106022;1277;113747;-73
2022/02/08 04:36:06;;;;;;;8.40;1.90;;;;;;;2.39;75.26;100243.31;107390;1276;108337;-72
2022/02/08 04:38:49;;;;;;;9.70;2.30;;;;;;;2.39;75.17;100240.56;107280;1274;137553;-73
2022/02/08 04:41:28;;;;;;;10.20;2.20;;;;;;;2.37;75.01;100242.97;107486;1274;96724;-71
2022/02/08 04:44:15;;;;;;;11.20;2.30;;;;;;;2.36;75.04;100243.65;107350;1276;137676;-71
2022/02/08 04:46:53;;;;;;;9.20;2.00;;;;;;;2.36;74.44;100234.90;106232;1276;111448;-72
2022/02/08 04:49:25;;;;;;;7.90;2.00;;;;;;;2.38;74.66;100245.37;105761;1276;138756;-71
2022/02/08 04:52:01;;;;;;;8.40;1.90;;;;;;;2.42;74.80;100247.26;105864;1277;108696;-72
2022/02/08 04:54:42;;;;;;;7.80;2.40;;;;;;;2.47;74.54;100250.85;105931;1275;137892;-72
2022/02/08 04:57:20;;;;;;;13.00;2.60;;;;;;;2.49;74.72;100254.97;105901;1276;97823;-72
2022/02/08 05:00:15;;;;;;;10.60;2.40;;;;;;;2.49;74.81;100262.52;105962;1277;112597;-72
2022/02/08 05:42:43;;;;;;;9.00;4.00;;;;;;;2.29;75.57;100305.39;106757;1276;111381;-73
2022/02/08 05:45:27;;;;;;;13.80;4.30;;;;;;;2.22;75.74;100305.55;107332;1274;107862;-72
2022/02/08 05:48:03;;;;;;;14.30;4.50;;;;;;;2.20;75.99;100315.33;106135;1276;106282;-71
2022/02/08 05:50:42;;;;;;;11.80;4.30;;;;;;;2.18;75.89;100320.13;107340;1274;138113;-72
2022/02/08 05:53:28;;;;;;;15.50;4.50;;;;;;;2.17;76.15;100326.31;107377;1276;96070;-73
2022/02/08 05:56:00;;;;;;;16.20;4.50;;;;;;;2.17;76.09;100325.45;106554;1276;137764;-72
2022/02/08 05:58:32;;;;;;;17.10;4.80;;;;;;;2.17;76.21;100323.21;105840;1276;107892;-72
2022/02/08 06:01:05;;;;;;;16.90;4.70;;;;;;;2.15;75.93;100326.80;105589;1274;138268;-72
2022/02/08 06:04:00;;;;;;;16.10;4.40;;;;;;;2.10;76.12;100325.41;105682;1275;98064;-73
2022/02/08 06:06:32;;;;;;;18.90;4.50;;;;;;;2.04;76.22;100324.72;105769;1276;96464;-72
2022/02/08 06:09:05;;;;;;;15.50;4.10;;;;;;;1.98;76.27;100333.61;105584;1275;140414;-72
2022/02/08 06:11:38;;;;;;;14.60;3.40;;;;;;;1.95;76.35;100334.77;105948;1275;109037;-71
2022/02/08 06:14:11;;;;;;;10.30;3.50;;;;;;;1.96;76.36;100335.30;106129;1276;138447;-72
2022/02/08 06:16:43;;;;;;;10.60;3.20;;;;;;;1.97;76.46;100337.19;105714;1274;97944;-72
2022/02/08 06:19:15;;;;;;;14.50;4.30;;;;;;;1.98;76.39;100330.02;105965;1276;137614;-72
2022/02/08 06:21:47;;;;;;;10.30;3.80;;;;;;;2.00;76.52;100340.65;107357;1276;114368;-73
2022/02/08 06:24:19;;;;;;;13.60;4.30;;;;;;;2.02;76.56;100343.91;106801;1275;107837;-72
2022/02/08 06:26:51;;;;;;;14.90;4.60;;;;;;;2.03;76.66;100349.75;106851;1276;137774;-73
2022/02/08 06:29:23;;;;;;;16.50;5.10;;;;;;;2.06;76.72;100353.70;107328;1275;96589;-72
2022/02/08 06:31:55;;;;;;;12.10;4.10;;;;;;;2.09;76.63;100360.58;105868;1276;137582;-71
2022/02/08 06:34:31;;;;;;;14.50;3.80;;;;;;;2.12;76.59;100363.48;105674;1276;110568;-72
2022/02/08 06:37:08;;;;;;;16.10;4.00;;;;;;;2.19;76.60;100362.16;105695;1276;139251;-72
2022/02/08 06:39:40;;;;;;;10.10;3.30;;;;;;;2.28;76.39;100363.04;105699;1276;107836;-72
2022/02/08 06:42:15;;;;;;;13.50;3.70;;;;;;;2.37;76.05;100363.77;105650;1276;97861;-73
2022/02/08 06:44:47;;;;;;;10.90;3.70;;;;;;;2.47;76.08;100364.64;105651;1274;137452;-73
2022/02/08 06:47:19;;;;;;;14.70;4.70;;;;;;;2.64;75.94;100362.96;105737;1276;112492;-73
2022/02/08 06:49:52;;;;;;;12.40;4.30;;;;;;;2.82;75.63;100355.27;105651;1276;137685;-73
2022/02/08 06:52:26;;;;;;;18.20;4.50;;;;;;;2.98;75.17;100352.87;105624;1274;107864;-71
2022/02/08 06:55:00;;;;;;;11.60;4.20;;;;;;;3.13;74.87;100361.46;105754;1276;138292;-71
2022/02/08 06:57:38;;;;;;;15.70;3.90;;;;;;;3.21;74.91;100363.68;105799;1276;97889;-73
2022/02/08 07:00:17;;;;;;;16.30;4.90;;;;;;;3.23;74.52;100366.44;105736;1275;112741;-73
2022/02/08 07:02:49;;;;;;;12.20;4.50;;;;;;;3.24;74.66;100363.53;107200;1276;138739;-73
2022/02/08 07:05:21;;;;;;;13.80;4.40;;;;;;;3.23;74.25;100364.38;106919;1274;108901;-72
2022/02/08 07:07:53;;;;;;;15.20;4.00;;;;;;;3.31;74.32;100360.77;105736;1276;138337;-72
2022/02/08 07:10:27;;;;;;;14.10;3.70;;;;;;;3.46;73.72;100362.64;105949;1274;97865;-73
2022/02/08 07:12:59;;;;;;;12.50;3.40;;;;;;;3.46;73.50;100354.40;105954;1274;140971;-71
2022/02/08 07:15:31;;;;;;;14.90;3.80;;;;;;;3.44;73.40;100356.80;105932;1276;108876;-73
2022/02/08 07:18:04;;;;;;;9.90;3.70;;;;;;;3.43;73.47;100353.55;105585;1275;110807;-72
2022/02/08 07:20:36;;;;;;;13.60;3.90;;;;;;;3.42;73.32;100358.02;105857;1274;138035;-72
2022/02/08 07:23:09;;;;;;;13.20;4.00;;;;;;;3.39;73.41;100356.79;105825;1275;97855;-71
2022/02/08 07:25:41;;;;;;;16.90;6.40;;;;;;;3.35;73.25;100360.58;105804;1276;137518;-71
2022/02/08 07:28:13;;;;;;;17.50;5.90;;;;;;;3.30;73.43;100369.88;106020;1275;110570;-74
2022/02/08 07:30:45;;;;;;;16.10;5.50;;;;;;;3.23;73.42;100373.83;105875;1275;108810;-73
2022/02/08 07:33:17;;;;;;;20.50;4.70;;;;;;;3.14;73.44;100366.96;105718;1276;139395;-72
2022/02/08 07:35:54;;;;;;;14.60;4.40;;;;;;;3.09;73.80;100372.46;105878;1275;97849;-73
2022/02/08 07:38:30;;;;;;;15.90;4.70;;;;;;;3.03;73.97;100374.67;105810;1276;138267;-73
2022/02/08 07:43:52;;;;;;;15.30;4.60;;;;;;;2.96;74.37;100380.52;105672;1276;138423;-73
2022/02/08 07:46:40;;;;;;;13.40;4.70;;;;;;;2.94;74.41;100386.70;105931;1276;97864;-72
2022/02/08 07:49:13;;;;;;;15.60;5.20;;;;;;;2.91;74.44;100381.39;105789;1274;138790;-73
2022/02/08 07:51:45;;;;;;;15.30;5.00;;;;;;;2.90;74.80;100384.13;106664;1276;112606;-72
2022/02/08 07:54:18;;;;;;;23.60;5.60;;;;;;;2.88;74.93;100382.59;105943;1276;108297;-73
2022/02/08 07:56:53;;;;;;;21.50;6.10;;;;;;;2.85;75.04;100384.98;105780;1276;138831;-72
2022/02/08 07:59:26;;;;;;;22.70;6.00;;;;;;;2.83;75.28;100382.39;105867;1274;98040;-71
2022/02/08 08:01:58;;;;;;;24.00;6.20;;;;;;;2.81;75.62;100383.08;105697;1275;139425;-73
2022/02/08 08:04:31;;;;;;;18.50;5.50;;;;;;;2.80;75.62;100387.20;105454;1274;112479;-72
2022/02/08 08:07:03;;;;;;;22.50;6.60;;;;;;;2.80;75.66;100385.83;105564;1276;138997;-71
2022/02/08 08:09:39;;;;;;;28.10;6.80;;;;;;;2.92;76.06;100384.98;105731;1274;109001;-74
2022/02/08 08:12:14;;;;;;;20.70;5.40;;;;;;;3.24;75.95;100373.31;105804;1275;97851;-72
2022/02/08 08:14:46;;;;;;;22.60;6.00;;;;;;;3.70;75.60;100377.38;107028;1274;137695;-71
2022/02/08 08:20:11;;;;;;;24.00;6.40;;;;;;;4.90;73.81;100368.39;105697;1276;137753;-73
2022/02/08 08:22:43;;;;;;;24.40;6.30;;;;;;;5.06;72.66;100371.56;107433;1275;107783;-74
2022/02/08 08:25:15;;;;;;;22.90;6.60;;;;;;;5.02;72.48;100376.58;107312;1276;138571;-72
2022/02/08 08:27:47;;;;;;;23.60;6.50;;;;;;;4.91;72.30;100370.46;107513;1275;96044;-72
2022/02/08 08:30:20;;;;;;;24.10;6.50;;;;;;;4.84;72.16;100374.29;107546;1276;111447;-72
2022/02/08 08:32:53;;;;;;;28.90;6.70;;;;;;;4.75;72.43;100371.42;107264;1274;140777;-73
2022/02/08 08:35:25;;;;;;;28.00;6.50;;;;;;;4.62;72.36;100376.66;106049;1274;108746;-76
2022/02/08 08:38:03;;;;;;;20.80;5.30;;;;;;;4.53;72.68;100371.05;105799;1276;137765;-70
2022/02/08 08:40:46;;;;;;;23.10;5.80;;;;;;;4.48;72.41;100358.50;105780;1277;97847;-72
2022/02/08 08:43:44;;;;;;;19.00;6.10;;;;;;;4.44;72.45;100371.08;105917;1274;138396;-71
2022/02/08 08:49:26;;;;;;;21.40;6.40;;;;;;;4.36;72.32;100367.01;105730;1276;138243;-71
2022/02/08 08:52:00;;;;;;;27.80;6.30;;;;;;;4.32;72.24;100370.81;105699;1274;97978;-73
2022/02/08 08:54:34;;;;;;;25.30;6.10;;;;;;;4.26;72.50;100365.48;107156;1276;96584;-72
2022/02/08 08:57:06;;;;;;;23.60;5.90;;;;;;;4.18;72.64;100361.23;107235;1274;139318;-71
2022/02/08 08:59:38;;;;;;;28.80;6.50;;;;;;;4.11;72.92;100361.59;107363;1274;108829;-69
2022/02/08 09:02:10;;;;;;;26.50;7.00;;;;;;;4.07;73.16;100367.46;105663;1274;137785;-70
2022/02/08 09:04:44;;;;;;;21.10;6.30;;;;;;;4.00;73.03;100367.16;105857;1276;97861;-70
2022/02/08 09:07:16;;;;;;;22.80;6.40;;;;;;;3.91;73.04;100369.92;105836;1274;235032;-69
2022/02/08 09:09:54;;;;;;;19.40;6.60;;;;;;;3.82;73.16;100372.19;105922;1274;112338;-69
2022/02/08 09:12:55;;;;;;;22.20;6.30;;;;;;;3.86;73.44;100376.66;105832;1275;108864;-70
2022/02/08 09:15:44;;;;;;;26.80;7.20;;;;;;;4.03;73.15;100370.92;105697;1276;138645;-70
2022/02/08 09:18:44;;;;;;;23.10;5.80;;;;;;;4.18;73.10;100352.80;105876;1274;97945;-69
2022/02/08 09:21:39;;;;;;;23.70;6.60;;;;;;;4.27;72.86;100366.69;105861;1276;137904;-70
2022/02/08 09:24:32;;;;;;;31.10;6.90;;;;;;;4.34;72.38;100369.25;105782;1275;111756;-69
2022/02/08 09:30:04;;;;;;;25.50;6.00;;;;;;;4.36;72.50;100367.17;105830;1276;108764;-69
2022/02/08 09:32:44;;;;;;;31.20;6.40;;;;;;;4.59;72.22;100357.91;106545;1276;139553;-70
2022/02/08 09:35:18;;;;;;;19.40;5.50;;;;;;;4.88;71.74;100365.30;105927;1276;97854;-70
2022/02/08 09:37:50;;;;;;;24.50;6.20;;;;;;;4.97;71.25;100369.20;106200;1276;137600;-68
2022/02/08 09:40:24;;;;;;;26.10;6.10;;;;;;;4.97;71.08;100367.98;105769;1276;108568;-69
2022/02/08 09:42:58;;;;;;;27.30;6.40;;;;;;;4.94;70.85;100369.23;105854;1276;107602;-69
2022/02/08 09:45:33;;;;;;;25.00;5.70;;;;;;;5.17;70.71;100355.95;105711;1277;138334;-70
2022/02/08 09:48:11;;;;;;;22.80;6.80;;;;;;;5.39;69.97;100346.45;105903;1276;97878;-70
2022/02/08 09:50:43;;;;;;;29.10;7.00;;;;;;;5.58;70.18;100341.60;106689;1276;137594;-69
2022/02/08 09:53:22;;;;;;;27.00;5.90;;;;;;;5.71;69.42;100345.41;105957;1276;108123;-71
2022/02/08 09:55:54;;;;;;;21.20;5.50;;;;;;;5.65;68.76;100333.07;105687;1276;138015;-69
2022/02/08 09:58:28;;;;;;;26.30;5.80;;;;;;;5.56;69.08;100342.31;105732;1276;97953;-69
2022/02/08 10:01:08;;;;;;;29.20;6.60;;;;;;;5.44;69.00;100336.22;107048;1276;96581;-71
2022/02/08 10:03:51;;;;;;;25.70;6.20;;;;;;;5.32;69.21;100326.16;105856;1276;139032;-71
2022/02/08 10:06:24;;;;;;;20.10;6.10;;;;;;;5.21;69.48;100327.30;105635;1276;107783;-71
2022/02/08 10:09:05;;;;;;;20.90;5.40;;;;;;;5.04;69.44;100325.21;105795;1274;138499;-71
2022/02/08 10:11:44;;;;;;;21.60;5.50;;;;;;;4.85;69.74;100318.63;105865;1275;97479;-70
2022/02/08 10:14:22;;;;;;;26.20;6.00;;;;;;;4.75;70.04;100312.00;105668;1276;138531;-70
2022/02/08 10:22:51;;;;;;;19.30;6.20;;;;;;;4.38;70.67;100303.64;105499;1279;107842;-70
2022/02/08 10:25:32;;;;;;;22.30;7.00;;;;;;;4.34;71.31;100297.30;105577;1279;138307;-70
2022/02/08 10:28:12;;;;;;;25.40;7.10;;;;;;;4.46;71.42;100288.27;105603;1278;97931;-70
2022/02/08 10:31:03;;;;;;;30.10;7.10;;;;;;;4.80;71.63;100274.75;105715;1277;111786;-69
2022/02/08 10:39:24;;;;;;;18.80;5.30;;;;;;;5.50;70.07;100254.41;105417;1279;138871;-70
2022/02/08 10:41:57;;;;;;;23.10;5.80;;;;;;;5.49;69.31;100259.77;105776;1277;98039;-70
2022/02/08 10:44:35;;;;;;;26.00;5.40;;;;;;;5.39;69.03;100263.52;105488;1277;139795;-70
2022/02/08 10:47:07;;;;;;;21.30;5.40;;;;;;;5.29;69.41;100262.40;105623;1277;107689;-71
2022/02/08 10:49:42;;;;;;;23.70;6.10;;;;;;;5.21;69.17;100260.08;105520;1276;139277;-69
2022/02/08 10:52:14;;;;;;;26.60;5.90;;;;;;;5.13;69.60;100258.93;105748;1276;98039;-70
2022/02/08 10:54:49;;;;;;;26.40;6.00;;;;;;;5.08;69.44;100258.30;107139;1277;97120;-70
2022/02/08 10:57:29;;;;;;;20.90;5.00;;;;;;;5.00;69.60;100252.00;107191;1277;138952;-70
2022/02/08 11:00:05;;;;;;;17.40;5.00;;;;;;;4.91;69.45;100245.20;107300;1275;107862;-70
2022/02/08 11:02:42;;;;;;;17.30;5.00;;;;;;;4.82;69.67;100254.57;107320;1274;138703;-71
2022/02/08 11:05:22;;;;;;;27.20;5.90;;;;;;;4.74;70.07;100246.71;107473;1275;96068;-70
2022/02/08 11:08:11;;;;;;;21.60;5.40;;;;;;;4.72;70.10;100243.99;107325;1276;138004;-70
2022/02/08 11:14:01;;;;;;;23.40;5.60;;;;;;;4.63;70.42;100237.67;107264;1275;138428;-69
2022/02/08 11:16:49;;;;;;;25.40;5.60;;;;;;;4.60;70.72;100243.57;106885;1276;108996;-69
2022/02/08 11:19:35;;;;;;;24.00;5.70;;;;;;;4.55;70.52;100235.86;105663;1276;137952;-69
2022/02/08 11:22:26;;;;;;;18.60;5.20;;;;;;;4.46;70.83;100237.98;107185;1276;96476;-71
2022/02/08 11:25:06;;;;;;;23.90;5.20;;;;;;;4.39;70.73;100238.05;105760;1276;111026;-71
2022/02/08 11:27:47;;;;;;;25.00;5.20;;;;;;;4.35;70.89;100247.55;105646;1276;139450;-71
2022/02/08 11:30:30;;;;;;;19.30;5.40;;;;;;;4.35;71.37;100246.17;105633;1275;110003;-70
2022/02/08 11:33:18;;;;;;;18.30;5.20;;;;;;;4.39;71.36;100244.08;105652;1276;139831;-70
2022/02/08 11:50:59;;;;;;;20.20;5.60;;;;;;;4.57;71.32;100207.25;106632;1279;138775;-69
2022/02/08 11:53:39;;;;;;;25.80;5.60;;;;;;;4.57;70.66;100206.23;107012;1279;112435;-69
2022/02/08 11:56:29;;;;;;;22.80;5.20;;;;;;;4.53;70.94;100198.86;106720;1278;138099;-70
2022/02/08 11:59:20;;;;;;;13.40;4.70;;;;;;;4.52;70.99;100189.91;106829;1279;107517;-70
2022/02/08 12:05:10;;;;;;;24.50;5.20;;;;;;;4.53;70.66;100189.91;106619;1281;96161;-70
2022/02/08 12:07:52;;;;;;;19.80;5.50;;;;;;;4.57;70.70;100196.06;105039;1282;139150;-70
2022/02/08 12:10:29;;;;;;;18.30;5.00;;;;;;;4.60;70.79;100191.04;104975;1282;110053;-70
2022/02/08 12:13:27;;;;;;;22.60;6.00;;;;;;;4.64;70.60;100189.79;104852;1283;108683;-69
2022/02/08 12:31:12;;;;;;;18.80;5.40;;;;;;;4.40;69.36;100178.30;106802;1276;96581;-71
2022/02/08 12:33:58;;;;;;;24.10;6.70;;;;;;;4.32;69.37;100169.07;106922;1277;140008;-70
2022/02/08 12:54:28;;;;;;;19.10;6.70;;;;;;;4.44;69.88;100124.20;105492;1284;109712;-72
2022/02/08 12:57:18;;;;;;;16.50;5.90;;;;;;;4.44;70.02;100117.48;105184;1282;139601;-70
2022/02/08 13:03:22;;;;;;;19.30;6.80;;;;;;;4.31;70.32;100111.59;105271;1282;137572;-70
2022/02/08 13:06:32;;;;;;;12.60;5.40;;;;;;;4.23;70.66;100105.63;106614;1282;111410;-71
2022/02/08 14:06:19;;;;;;;17.30;7.40;;;;;;;2.93;78.48;100031.38;105414;1276;107656;-70
2022/02/08 14:14:48;;;;;;;22.30;7.60;;;;;;;2.81;79.38;100012.02;105139;1277;138789;-71
2022/02/08 14:23:38;;;;;;;18.90;7.90;;;;;;;2.85;79.77;100012.68;105380;1281;108920;-71
2022/02/08 14:32:04;;;;;;;23.20;9.30;;;;;;;2.90;80.51;100002.72;105098;1281;112439;-71
2022/02/08 14:35:23;;;;;;;18.50;8.50;;;;;;;2.90;80.44;99997.91;105073;1282;138349;-71
2022/02/08 15:09:23;;;;;;;18.60;8.50;;;;;;;3.11;82.68;99964.64;105837;1274;139061;-69
2022/02/08 15:12:10;;;;;;;17.00;8.10;;;;;;;3.11;82.74;99956.39;105910;1274;98433;-68
2022/02/08 15:14:49;;;;;;;15.20;8.70;;;;;;;3.11;82.70;99950.20;105789;1276;138091;-70
2022/02/08 15:17:21;;;;;;;18.50;8.90;;;;;;;3.14;82.39;99949.49;105874;1274;108049;-69
2022/02/08 15:19:55;;;;;;;19.90;9.20;;;;;;;3.16;82.66;99951.54;105942;1274;106283;-69
2022/02/08 15:23:21;;;;;;;17.30;8.90;;;;;;;3.17;82.52;99947.58;107294;1274;137691;-70
2022/02/08 15:25:56;;;;;;;16.40;7.90;;;;;;;3.16;82.40;99939.68;107486;1274;96094;-70
2022/02/08 15:28:29;;;;;;;15.80;7.60;;;;;;;3.18;82.57;99935.54;105694;1275;138152;-69
2022/02/08 15:31:01;;;;;;;14.50;7.30;;;;;;;3.22;82.56;99940.50;105866;1274;108913;-69
2022/02/08 15:33:33;;;;;;;14.40;7.70;;;;;;;3.26;82.44;99942.89;105643;1276;138667;-68
2022/02/08 15:36:05;;;;;;;17.00;8.30;;;;;;;3.27;82.65;99945.45;105750;1274;97883;-70
2022/02/08 15:38:40;;;;;;;13.20;7.90;;;;;;;3.27;82.79;99948.55;106016;1274;97843;-70
2022/02/08 15:41:13;;;;;;;14.90;8.30;;;;;;;3.26;82.71;99942.71;105609;1275;139274;-70
2022/02/08 15:43:45;;;;;;;17.60;9.00;;;;;;;3.24;82.69;99937.23;105677;1276;107887;-71
2022/02/08 15:46:21;;;;;;;16.00;8.60;;;;;;;3.25;83.02;99933.45;105617;1275;138316;-71
2022/02/08 15:48:54;;;;;;;14.40;7.90;;;;;;;3.24;83.40;99933.28;105755;1273;98648;-71
2022/02/08 15:51:31;;;;;;;12.80;7.20;;;;;;;3.27;83.41;99931.19;105697;1276;139405;-71
2022/02/08 15:57:31;;;;;;;14.70;7.50;;;;;;;3.35;83.77;99934.56;105768;1276;108902;-71
2022/02/08 16:00:33;;;;;;;15.20;7.00;;;;;;;3.35;84.16;99931.47;107541;1275;109898;-71
2022/02/08 16:08:43;;;;;;;11.70;7.50;;;;;;;3.47;84.42;99924.84;107237;1276;112423;-71
2022/02/08 16:11:37;;;;;;;13.80;8.00;;;;;;;3.48;84.34;99922.60;106569;1276;138175;-71
2022/02/08 16:14:16;;;;;;;10.90;7.10;;;;;;;3.47;84.42;99919.52;105723;1278;108911;-70
2022/02/08 16:17:01;;;;;;;11.50;7.00;;;;;;;3.48;84.45;99917.79;105428;1277;138775;-72
2022/02/08 16:19:47;;;;;;;11.80;6.70;;;;;;;3.50;84.58;99914.16;105661;1277;97775;-71
2022/02/08 16:22:36;;;;;;;13.40;7.50;;;;;;;3.52;84.66;99914.83;105568;1277;140257;-70
2022/02/08 16:25:22;;;;;;;11.60;6.70;;;;;;;3.56;85.10;99914.27;105661;1277;107761;-71
2022/02/08 16:28:12;;;;;;;11.40;6.90;;;;;;;3.62;85.10;99916.30;107016;1276;139855;-71